Regional Weather

 

KCRX - Corinth, Mississippi, USA
Distance from station: SW 29mi, 47km
Updated: Fri, 29-Sep-2023 8:55pm CDT
Clear
Clear
 Wind from calm
Wind: Calm
Temperature: 70°F , 21°C
Dew Point: 70°F , 21°C
Humidity: 100%
Barometer: 30.08 inHg , 1018.6 hPa
Clouds: Clear
Visibility: 10 miles , 16 km
2023/09/30 01:55 KCRX 300155Z AUTO 00000KT 10SM CLR 21/21 A3008 RMK AO2
KMKL - Jackson, Tennessee, USA
Distance from station: NW 46mi, 73km
Updated: Fri, 29-Sep-2023 8:53pm CDT
Clear
Clear
 Wind from calm
Wind: Calm
Temperature: 70°F , 21°C
Dew Point: 66°F , 19°C
Humidity: 88%
Barometer: 30.08 inHg , 1018.6 hPa
Clouds: Clear
2023/09/30 01:53 KMKL 300153Z AUTO 00000KT CLR 21/19 A3008 RMK AO2 SLP183 T02110194 $
 
KMSL - Muscle Shoal, Alabama, USA
Distance from station: SE 49mi, 79km
Updated: Fri, 29-Sep-2023 8:53pm CDT
Clear
Clear
 Wind from ESE
Wind: ESE 3 mph , 6 km/h
Temperature: 70°F , 21°C
Dew Point: 63°F , 17°C
Humidity: 78%
Barometer: 30.10 inHg , 1019.3 hPa
Clouds: Clear
Visibility: 10 miles , 16 km
2023/09/30 01:53 KMSL 300153Z AUTO 12003KT 10SM CLR 21/17 A3010 RMK AO2 SLP188 T02110167
KTUP - Tupelo, Mississippi, USA
Distance from station: SSW 72mi, 117km
Updated: Fri, 29-Sep-2023 8:53pm CDT
Clear
Clear
 Wind from calm
Wind: Calm
Temperature: 75°F , 24°C
Dew Point: 64°F , 18°C
Humidity: 69%
Barometer: 30.07 inHg , 1018.3 hPa
Clouds: Clear
Visibility: 10 miles , 16 km
2023/09/30 01:53 KTUP 300153Z 00000KT 10SM CLR 24/18 A3007 RMK AO2 SLP180 T02440178 $
 
KHSV - Huntsville, Alabama, USA
Distance from station: ESE 92mi, 148km
Updated: Fri, 29-Sep-2023 8:53pm CDT
Clear
Clear
 Wind from calm
Wind: Calm
Temperature: 68°F , 20°C
Dew Point: 63°F , 17°C
Humidity: 83%
Barometer: 30.11 inHg , 1019.6 hPa
Clouds: Clear
Visibility: 10 miles , 16 km
2023/09/30 01:53 KHSV 300153Z 00000KT 10SM CLR 20/17 A3011 RMK AO2 SLP191 T02000167
KBNA - Nashville, TN, USA
Distance from station: NE 97mi, 157km
Updated: Fri, 29-Sep-2023 8:53pm CDT
Clear
Clear
 Wind from calm
Wind: Calm
Temperature: 73°F , 23°C
Dew Point: 64°F , 18°C
Humidity: 74%
Barometer: 30.12 inHg , 1020 hPa
Clouds: Clear
Visibility: 10 miles , 16 km
2023/09/30 01:53 KBNA 300153Z 00000KT 10SM CLR 23/18 A3012 RMK AO2 SLP192 T02280183 $
 
KMEM - Memphis, Tennessee, USA
Distance from station: W 99mi, 159km
Updated: Fri, 29-Sep-2023 8:54pm CDT
Clear
Clear
 Wind from SE
Wind: SE 5 mph , 7 km/h
Temperature: 79°F , 26°C
Dew Point: 63°F , 17°C
Humidity: 58%
Barometer: 30.06 inHg , 1017.9 hPa
Clouds: Clear
Visibility: 10 miles , 16 km
2023/09/30 01:54 KMEM 300154Z 13004KT 10SM CLR 26/17 A3006 RMK AO2 SLP176 T02610172
KCKV - Clarksville, TN, USA
Distance from station: NNE 99mi, 159km
Updated: Fri, 29-Sep-2023 8:52pm CDT
Clear
Clear
 Wind from calm
Wind: Calm
Temperature: 72°F , 22°C
Dew Point: 66°F , 19°C
Humidity: 83%
Barometer: 30.10 inHg , 1019.3 hPa
Clouds: Clear
Visibility: 10 miles , 16 km
2023/09/30 01:52 KCKV 300152Z AUTO 00000KT 10SM CLR 22/19 A3010 RMK AO2 SLP187 T02220189
 
KCHA - Chattanooga, TN, USA
Distance from station: E 165mi, 265km
Updated: Fri, 29-Sep-2023 8:53pm CDT
Clear
Clear
 Wind from calm
Wind: Calm
Temperature: 75°F , 24°C
Dew Point: 63°F , 17°C
Humidity: 65%
Barometer: 30.11 inHg , 1019.6 hPa
Clouds: Clear
Visibility: 10 miles , 16 km
2023/09/30 01:53 KCHA 300153Z 00000KT 10SM CLR 24/17 A3011 RMK AO2 SLP190 T02390172
KTYS - Knoxville, TN, USA
Distance from station: E 234mi, 377km
Updated: Fri, 29-Sep-2023 8:53pm CDT
Few Clouds
Few Clouds
 Wind from ENE
Wind: ENE 6 mph , 9 km/h
Temperature: 70°F , 21°C
Dew Point: 63°F , 17°C
Humidity: 78%
Barometer: 30.12 inHg , 1020 hPa
Clouds: Few Clouds
Visibility: 10 miles , 16 km
Cloud details: Few Clouds 10000 ft
2023/09/30 01:53 KTYS 300153Z 07005KT 10SM FEW100 21/17 A3012 RMK AO2 SLP190 T02110167

Refresh Page for latest data.